Time;durP1;ratioP1;P1;durP2;ratioP2;P2;SDS_P1;SDS_P2;PMS_P1;PMS_P2;Temp;Humidity;BMP_temperature;BMP_pressure;BME280_temperature;BME280_humidity;BME280_pressure;Samples;Min_cycle;Max_cycle;Signal;HPM_P1;HPM_P2
2023/01/19 00:02:19;;;;;;;4.70;1.88;;;;;;;;;;5036916;28;20120;-81
2023/01/19 00:04:45;;;;;;;6.38;1.92;;;;;;;;;;5045472;28;20048;-81
2023/01/19 00:07:11;;;;;;;6.40;2.00;;;;;;;;;;5036706;28;20037;-82
2023/01/19 00:09:38;;;;;;;10.75;1.73;;;;;;;;;;5049024;28;20091;-81
2023/01/19 00:12:05;;;;;;;5.68;1.88;;;;;;;;;;5044681;28;20472;-80
2023/01/19 00:14:31;;;;;;;5.05;1.70;;;;;;;;;;5045084;28;20033;-80
2023/01/19 00:17:00;;;;;;;5.78;1.90;;;;;;;;;;5036359;28;20037;-81
2023/01/19 00:19:26;;;;;;;5.53;1.70;;;;;;;;;;5038756;28;20140;-80
2023/01/19 00:21:52;;;;;;;5.18;1.75;;;;;;;;;;5035547;28;20076;-81
2023/01/19 00:24:18;;;;;;;5.47;1.70;;;;;;;;;;5044184;28;20073;-80
2023/01/19 00:26:44;;;;;;;5.40;1.70;;;;;;;;;;5049541;28;20068;-82
2023/01/19 00:29:11;;;;;;;4.40;1.60;;;;;;;;;;5052830;28;20294;-81
2023/01/19 00:31:37;;;;;;;8.27;1.92;;;;;;;;;;5044197;28;20045;-81
2023/01/19 00:34:03;;;;;;;6.85;2.00;;;;;;;;;;5037855;28;20032;-80
2023/01/19 00:36:30;;;;;;;7.82;1.70;;;;;;;;;;5043462;28;20128;-80
2023/01/19 00:38:56;;;;;;;7.72;2.15;;;;;;;;;;5048460;28;20048;-80
2023/01/19 00:44:12;;;;;;;10.35;2.00;;;;;;;;;;5044691;28;20069;-81
2023/01/19 00:46:38;;;;;;;6.70;1.92;;;;;;;;;;5035659;28;20053;-80
2023/01/19 00:49:05;;;;;;;10.60;2.25;;;;;;;;;;5060970;28;20048;-81
2023/01/19 00:51:31;;;;;;;3.92;1.95;;;;;;;;;;5044016;28;20392;-80
2023/01/19 00:54:03;;;;;;;7.43;2.53;;;;;;;;;;5032817;28;20040;-80
2023/01/19 00:56:29;;;;;;;7.82;2.22;;;;;;;;;;5069712;28;20133;-80
2023/01/19 00:58:55;;;;;;;7.40;2.10;;;;;;;;;;5039113;28;20476;-81
2023/01/19 01:01:21;;;;;;;6.32;1.63;;;;;;;;;;5040652;28;20060;-80
2023/01/19 01:03:52;;;;;;;5.80;1.70;;;;;;;;;;5029528;28;20046;-80
2023/01/19 01:06:18;;;;;;;8.30;2.45;;;;;;;;;;5036526;28;20428;-81
2023/01/19 01:08:44;;;;;;;13.55;2.58;;;;;;;;;;5043730;28;20041;-80
2023/01/19 01:11:10;;;;;;;7.70;2.70;;;;;;;;;;5039474;28;20729;-80
2023/01/19 01:13:36;;;;;;;6.43;1.90;;;;;;;;;;5036270;28;20456;-80
2023/01/19 01:16:02;;;;;;;4.55;1.70;;;;;;;;;;5035277;28;20045;-81
2023/01/19 01:18:28;;;;;;;5.75;1.70;;;;;;;;;;5036411;28;20048;-80
2023/01/19 01:21:05;;;;;;;6.80;2.00;;;;;;;;;;5035320;28;20040;-81
2023/01/19 01:23:31;;;;;;;6.63;1.90;;;;;;;;;;5043979;28;20041;-80
2023/01/19 01:25:57;;;;;;;5.07;1.73;;;;;;;;;;5047315;28;20090;-80
2023/01/19 01:28:23;;;;;;;2.95;1.80;;;;;;;;;;5039863;28;20041;-80
2023/01/19 01:30:52;;;;;;;6.80;1.80;;;;;;;;;;5036182;28;20045;-80
2023/01/19 01:33:18;;;;;;;6.35;2.15;;;;;;;;;;5039524;28;20128;-80
2023/01/19 01:35:44;;;;;;;8.70;1.70;;;;;;;;;;5042148;28;20175;-80
2023/01/19 01:38:10;;;;;;;6.93;1.70;;;;;;;;;;5036180;28;20114;-80
2023/01/19 01:40:40;;;;;;;6.70;1.50;;;;;;;;;;5075383;28;20538;-80
2023/01/19 01:43:12;;;;;;;6.45;1.88;;;;;;;;;;5038771;28;20056;-80
2023/01/19 01:45:39;;;;;;;10.03;2.20;;;;;;;;;;5042691;28;20179;-80
2023/01/19 01:48:25;;;;;;;6.35;2.15;;;;;;;;;;5035825;28;20060;-80
2023/01/19 01:53:44;;;;;;;14.48;2.50;;;;;;;;;;5041718;28;20042;-80
2023/01/19 01:56:12;;;;;;;12.90;2.40;;;;;;;;;;5031205;28;20061;-81
2023/01/19 01:58:39;;;;;;;9.13;1.92;;;;;;;;;;5041526;28;20146;-80
2023/01/19 02:03:51;;;;;;;6.80;2.38;;;;;;;;;;5028403;28;20041;-81
2023/01/19 02:06:17;;;;;;;8.15;2.20;;;;;;;;;;5060311;28;20701;-81
2023/01/19 02:14:17;;;;;;;9.85;2.33;;;;;;;;;;5041892;28;20049;-80
2023/01/19 02:16:44;;;;;;;9.18;2.30;;;;;;;;;;5033631;28;20041;-80
2023/01/19 02:19:13;;;;;;;7.20;2.70;;;;;;;;;;5046943;28;20443;-81
2023/01/19 02:21:43;;;;;;;10.00;2.75;;;;;;;;;;5041907;28;20045;-81
2023/01/19 02:24:10;;;;;;;7.50;2.63;;;;;;;;;;5064617;28;20037;-81
2023/01/19 02:26:38;;;;;;;12.20;3.33;;;;;;;;;;5038212;28;20053;-80
2023/01/19 02:29:08;;;;;;;8.35;2.38;;;;;;;;;;5036562;28;21858;-80
2023/01/19 02:31:36;;;;;;;5.43;2.00;;;;;;;;;;5032551;28;20522;-80
2023/01/19 02:34:03;;;;;;;5.82;2.10;;;;;;;;;;5034995;28;20040;-80
2023/01/19 02:36:38;;;;;;;6.80;2.03;;;;;;;;;;5042535;28;20544;-80
2023/01/19 02:39:05;;;;;;;7.10;2.08;;;;;;;;;;5041308;28;20055;-81
2023/01/19 02:41:33;;;;;;;6.65;2.28;;;;;;;;;;5039375;28;20053;-80
2023/01/19 02:44:00;;;;;;;12.70;2.50;;;;;;;;;;5044964;28;20087;-80
2023/01/19 02:46:26;;;;;;;8.85;2.25;;;;;;;;;;5034838;28;20056;-80
2023/01/19 02:48:52;;;;;;;10.52;2.70;;;;;;;;;;5036253;28;20051;-80
2023/01/19 02:51:23;;;;;;;10.57;2.53;;;;;;;;;;5040994;28;20123;-80
2023/01/19 02:54:02;;;;;;;17.75;3.42;;;;;;;;;;5039111;28;20045;-80
2023/01/19 02:56:31;;;;;;;14.55;3.45;;;;;;;;;;5037338;28;20160;-80
2023/01/19 02:59:14;;;;;;;15.13;2.90;;;;;;;;;;5045035;28;20037;-80
2023/01/19 03:01:53;;;;;;;13.23;3.35;;;;;;;;;;5034197;28;20397;-80
2023/01/19 03:04:19;;;;;;;19.77;3.67;;;;;;;;;;5038795;28;20041;-80
2023/01/19 03:06:48;;;;;;;11.25;2.72;;;;;;;;;;5038445;28;20567;-80
2023/01/19 03:09:26;;;;;;;11.93;2.78;;;;;;;;;;5044612;28;20124;-81
2023/01/19 03:12:02;;;;;;;14.05;3.03;;;;;;;;;;5036384;28;20059;-80
2023/01/19 03:14:30;;;;;;;11.93;3.42;;;;;;;;;;5043118;28;20056;-80
2023/01/19 03:16:59;;;;;;;18.95;3.70;;;;;;;;;;5040198;28;20041;-80
2023/01/19 03:19:32;;;;;;;13.27;3.10;;;;;;;;;;5040233;28;20049;-80
2023/01/19 03:22:00;;;;;;;8.43;2.67;;;;;;;;;;5038557;28;20059;-80
2023/01/19 03:24:28;;;;;;;7.43;2.40;;;;;;;;;;5036594;28;20052;-80
2023/01/19 03:26:57;;;;;;;15.07;3.17;;;;;;;;;;5038656;28;20041;-81
2023/01/19 03:29:27;;;;;;;14.85;2.85;;;;;;;;;;5045294;28;20580;-80
2023/01/19 03:31:55;;;;;;;13.65;2.90;;;;;;;;;;5026314;28;20095;-81
2023/01/19 03:34:22;;;;;;;15.57;2.78;;;;;;;;;;5069554;28;20050;-80
2023/01/19 03:36:51;;;;;;;11.50;2.60;;;;;;;;;;5039804;28;20412;-80
2023/01/19 03:39:24;;;;;;;14.38;3.03;;;;;;;;;;5034740;28;20057;-80
2023/01/19 03:41:52;;;;;;;7.95;2.70;;;;;;;;;;5065916;28;20148;-80
2023/01/19 03:44:18;;;;;;;8.80;2.75;;;;;;;;;;5041830;28;20052;-80
2023/01/19 03:46:45;;;;;;;6.63;2.28;;;;;;;;;;5035243;28;20045;-80
2023/01/19 03:49:11;;;;;;;10.35;2.53;;;;;;;;;;5031319;28;20439;-80
2023/01/19 03:51:38;;;;;;;11.63;3.38;;;;;;;;;;5038659;28;20046;-80
2023/01/19 03:54:09;;;;;;;9.23;2.83;;;;;;;;;;5044350;28;20037;-79
2023/01/19 03:56:35;;;;;;;6.68;2.00;;;;;;;;;;5031941;28;20045;-79
2023/01/19 03:59:01;;;;;;;7.43;2.33;;;;;;;;;;5041456;28;20040;-79
2023/01/19 04:01:27;;;;;;;9.00;2.25;;;;;;;;;;5036747;28;20103;-79
2023/01/19 04:03:53;;;;;;;9.20;2.40;;;;;;;;;;5038728;28;20506;-80
2023/01/19 04:06:20;;;;;;;8.90;2.50;;;;;;;;;;5032490;28;20092;-80
2023/01/19 04:08:49;;;;;;;8.50;2.20;;;;;;;;;;5034305;28;20083;-80
2023/01/19 04:11:16;;;;;;;9.50;2.50;;;;;;;;;;5033361;28;20037;-79
2023/01/19 04:13:45;;;;;;;15.93;2.90;;;;;;;;;;5030260;28;20041;-79
2023/01/19 04:16:11;;;;;;;8.23;2.10;;;;;;;;;;5031588;28;21050;-79
2023/01/19 04:18:37;;;;;;;5.70;2.00;;;;;;;;;;5036221;28;20034;-79
2023/01/19 04:21:05;;;;;;;9.73;2.40;;;;;;;;;;5032642;28;20045;-79
2023/01/19 04:23:31;;;;;;;11.02;2.45;;;;;;;;;;5032704;28;20071;-79
2023/01/19 04:25:58;;;;;;;7.50;2.20;;;;;;;;;;5034580;28;20042;-80
2023/01/19 04:28:24;;;;;;;6.32;2.15;;;;;;;;;;5034856;28;20057;-79
2023/01/19 04:30:54;;;;;;;10.73;2.92;;;;;;;;;;5031721;28;20037;-79
2023/01/19 04:33:20;;;;;;;11.65;2.58;;;;;;;;;;5037966;28;20070;-79
2023/01/19 04:35:46;;;;;;;10.32;2.72;;;;;;;;;;5040937;28;20108;-79
2023/01/19 04:38:12;;;;;;;12.35;2.92;;;;;;;;;;5030152;28;20046;-79
2023/01/19 04:40:39;;;;;;;14.13;3.33;;;;;;;;;;5033949;28;20064;-79
2023/01/19 04:43:05;;;;;;;18.70;3.53;;;;;;;;;;5032683;28;20477;-79
2023/01/19 04:45:31;;;;;;;11.00;2.95;;;;;;;;;;5036605;28;20041;-79
2023/01/19 04:47:58;;;;;;;17.00;3.03;;;;;;;;;;5036131;28;20106;-79
2023/01/19 04:50:24;;;;;;;12.93;3.20;;;;;;;;;;5030693;28;20041;-79
2023/01/19 04:52:50;;;;;;;11.02;3.10;;;;;;;;;;5034100;28;20535;-79
2023/01/19 04:55:17;;;;;;;14.60;3.58;;;;;;;;;;5030911;28;20124;-79
2023/01/19 04:57:44;;;;;;;13.20;3.47;;;;;;;;;;5039537;28;20049;-79
2023/01/19 05:00:10;;;;;;;15.07;3.35;;;;;;;;;;5035065;28;20045;-79
2023/01/19 05:02:36;;;;;;;10.85;2.88;;;;;;;;;;5028877;28;20044;-79
2023/01/19 05:05:03;;;;;;;13.45;2.90;;;;;;;;;;5029903;28;20045;-80
2023/01/19 05:07:32;;;;;;;9.50;2.72;;;;;;;;;;5037459;28;20100;-79
2023/01/19 05:09:58;;;;;;;9.57;2.65;;;;;;;;;;5042613;28;20079;-80
2023/01/19 05:12:24;;;;;;;14.93;2.85;;;;;;;;;;5040270;28;20048;-79
2023/01/19 05:14:50;;;;;;;10.23;2.85;;;;;;;;;;5046177;28;20072;-79
2023/01/19 05:17:16;;;;;;;8.45;2.33;;;;;;;;;;5033364;28;20049;-79
2023/01/19 05:19:42;;;;;;;6.70;2.00;;;;;;;;;;5030033;28;20088;-79
2023/01/19 05:22:08;;;;;;;6.13;2.03;;;;;;;;;;5040769;28;20403;-80
2023/01/19 05:24:34;;;;;;;9.45;2.38;;;;;;;;;;5042376;28;20152;-80
2023/01/19 05:27:00;;;;;;;9.82;2.63;;;;;;;;;;5040464;28;20034;-80
2023/01/19 05:29:26;;;;;;;12.32;2.92;;;;;;;;;;5043493;28;20056;-80
2023/01/19 05:31:52;;;;;;;7.47;2.30;;;;;;;;;;5039671;28;20076;-80
2023/01/19 05:34:19;;;;;;;9.48;2.30;;;;;;;;;;5040929;28;20081;-80
2023/01/19 05:36:45;;;;;;;18.83;3.63;;;;;;;;;;5032609;28;20083;-80
2023/01/19 05:39:11;;;;;;;13.50;3.33;;;;;;;;;;5030599;28;21078;-80
2023/01/19 05:41:37;;;;;;;10.07;2.42;;;;;;;;;;5032555;28;20128;-79
2023/01/19 05:44:03;;;;;;;10.30;2.80;;;;;;;;;;5038273;28;20038;-80
2023/01/19 05:46:29;;;;;;;11.55;3.15;;;;;;;;;;5040139;28;20045;-80
2023/01/19 05:48:55;;;;;;;11.93;3.10;;;;;;;;;;5046583;28;20041;-80
2023/01/19 05:51:21;;;;;;;10.48;2.63;;;;;;;;;;5045328;28;20128;-80
2023/01/19 05:53:47;;;;;;;9.82;2.88;;;;;;;;;;5046246;28;20116;-81
2023/01/19 05:56:13;;;;;;;9.90;3.05;;;;;;;;;;5038387;28;20132;-81
2023/01/19 05:58:39;;;;;;;10.98;2.85;;;;;;;;;;5036057;28;20040;-80
2023/01/19 06:01:07;;;;;;;12.40;3.00;;;;;;;;;;5041120;28;20473;-80
2023/01/19 06:03:33;;;;;;;14.48;3.80;;;;;;;;;;5079324;28;20121;-80
2023/01/19 06:05:59;;;;;;;11.07;3.15;;;;;;;;;;5039193;28;20107;-80
2023/01/19 06:08:26;;;;;;;15.80;3.55;;;;;;;;;;5038672;28;21968;-80
2023/01/19 06:10:52;;;;;;;14.20;3.17;;;;;;;;;;5043832;28;20080;-80
2023/01/19 06:13:18;;;;;;;11.30;2.95;;;;;;;;;;5026993;28;20033;-80
2023/01/19 06:15:44;;;;;;;8.75;2.28;;;;;;;;;;5069539;28;20048;-80
2023/01/19 06:18:10;;;;;;;10.68;3.08;;;;;;;;;;5043524;28;20073;-81
2023/01/19 06:20:36;;;;;;;8.93;2.67;;;;;;;;;;5031543;28;20492;-80
2023/01/19 06:23:03;;;;;;;11.88;3.38;;;;;;;;;;5042160;28;20048;-80
2023/01/19 06:25:29;;;;;;;15.40;3.28;;;;;;;;;;5030967;28;20111;-80
2023/01/19 06:27:55;;;;;;;16.00;3.70;;;;;;;;;;5039613;28;20036;-80
2023/01/19 06:30:21;;;;;;;12.05;3.13;;;;;;;;;;5061863;28;20536;-80
2023/01/19 06:32:47;;;;;;;15.75;3.13;;;;;;;;;;5043468;28;20599;-80
2023/01/19 06:35:13;;;;;;;11.52;3.00;;;;;;;;;;5039112;28;20084;-80
2023/01/19 06:37:39;;;;;;;13.32;2.95;;;;;;;;;;5070080;28;20041;-79
2023/01/19 06:40:06;;;;;;;9.95;3.03;;;;;;;;;;5042150;28;20060;-82
2023/01/19 06:42:32;;;;;;;13.70;3.05;;;;;;;;;;5044781;28;20045;-82
2023/01/19 06:44:58;;;;;;;15.27;2.92;;;;;;;;;;5031112;28;20045;-81
2023/01/19 06:47:24;;;;;;;16.02;4.25;;;;;;;;;;5062508;28;20082;-80
2023/01/19 06:49:50;;;;;;;15.63;3.35;;;;;;;;;;5031091;28;20037;-81
2023/01/19 06:52:17;;;;;;;12.98;3.10;;;;;;;;;;5036323;28;20034;-81
2023/01/19 06:54:44;;;;;;;6.65;2.58;;;;;;;;;;5049434;28;20051;-83
2023/01/19 06:57:11;;;;;;;9.63;2.50;;;;;;;;;;5028617;28;20052;-80
2023/01/19 06:59:37;;;;;;;12.80;2.92;;;;;;;;;;5021651;28;20049;-82
2023/01/19 07:02:03;;;;;;;9.23;2.17;;;;;;;;;;5066981;28;20053;-81
2023/01/19 07:04:29;;;;;;;8.55;2.55;;;;;;;;;;5046971;28;20555;-82
2023/01/19 07:06:55;;;;;;;7.40;2.30;;;;;;;;;;5037290;28;20511;-81
2023/01/19 07:09:23;;;;;;;11.05;2.60;;;;;;;;;;5039557;28;20044;-81
2023/01/19 07:11:49;;;;;;;8.63;2.13;;;;;;;;;;5028784;28;20071;-80
2023/01/19 07:14:15;;;;;;;7.53;2.20;;;;;;;;;;5042847;28;20037;-81
2023/01/19 07:16:41;;;;;;;13.07;2.85;;;;;;;;;;5060330;28;20042;-80
2023/01/19 07:19:09;;;;;;;10.48;2.78;;;;;;;;;;5060297;28;20045;-81
2023/01/19 07:21:35;;;;;;;16.65;2.83;;;;;;;;;;5028311;28;20079;-81
2023/01/19 07:24:01;;;;;;;8.15;2.92;;;;;;;;;;5030295;28;20045;-80
2023/01/19 07:26:27;;;;;;;12.63;2.70;;;;;;;;;;5077693;28;20171;-80
2023/01/19 07:28:54;;;;;;;17.90;3.25;;;;;;;;;;5042278;28;20063;-80
2023/01/19 07:31:20;;;;;;;15.35;3.20;;;;;;;;;;5039710;28;20037;-80
2023/01/19 07:33:46;;;;;;;15.07;3.05;;;;;;;;;;5015193;28;20400;-79
2023/01/19 07:36:12;;;;;;;11.40;3.05;;;;;;;;;;5038712;28;20105;-80
2023/01/19 07:38:38;;;;;;;13.77;3.03;;;;;;;;;;5044269;28;20058;-80
2023/01/19 07:41:06;;;;;;;8.27;2.42;;;;;;;;;;5045538;28;20404;-80
2023/01/19 07:43:33;;;;;;;10.27;2.78;;;;;;;;;;5045814;28;20497;-81
2023/01/19 07:45:59;;;;;;;9.70;2.70;;;;;;;;;;5037499;28;20164;-80
2023/01/19 07:48:25;;;;;;;11.30;2.80;;;;;;;;;;5039817;28;20098;-80
2023/01/19 07:50:51;;;;;;;11.27;2.42;;;;;;;;;;5047057;28;20033;-80
2023/01/19 07:53:18;;;;;;;10.32;2.83;;;;;;;;;;5028472;28;20044;-81
2023/01/19 07:55:44;;;;;;;10.07;2.67;;;;;;;;;;5046418;28;20075;-81
2023/01/19 07:58:10;;;;;;;11.70;2.42;;;;;;;;;;5045291;28;20391;-82
2023/01/19 08:00:37;;;;;;;10.70;2.40;;;;;;;;;;5030503;28;20044;-81
2023/01/19 08:03:04;;;;;;;14.98;2.90;;;;;;;;;;5032618;28;20047;-82
2023/01/19 08:05:30;;;;;;;15.73;2.97;;;;;;;;;;5064628;28;20053;-82
2023/01/19 08:07:57;;;;;;;7.82;2.40;;;;;;;;;;5044256;28;20492;-82
2023/01/19 08:10:25;;;;;;;12.65;2.67;;;;;;;;;;5044492;28;20041;-81
2023/01/19 08:12:54;;;;;;;9.88;2.72;;;;;;;;;;5017793;28;20121;-82
2023/01/19 08:15:23;;;;;;;9.52;2.60;;;;;;;;;;5038544;28;20379;-82
2023/01/19 08:17:55;;;;;;;10.55;2.58;;;;;;;;;;5046700;28;20047;-82
2023/01/19 08:20:22;;;;;;;13.57;3.25;;;;;;;;;;5042419;28;20053;-81
2023/01/19 08:22:48;;;;;;;11.10;3.05;;;;;;;;;;5041609;28;20484;-82
2023/01/19 08:25:14;;;;;;;8.65;2.92;;;;;;;;;;5036851;28;20048;-82
2023/01/19 08:27:40;;;;;;;13.45;3.40;;;;;;;;;;5046369;28;20045;-82
2023/01/19 08:30:07;;;;;;;13.25;3.08;;;;;;;;;;5044074;28;20049;-82
2023/01/19 08:32:33;;;;;;;19.98;3.05;;;;;;;;;;5025451;28;20366;-81
2023/01/19 08:34:59;;;;;;;9.40;2.85;;;;;;;;;;5044164;28;20048;-82
2023/01/19 08:37:25;;;;;;;9.20;2.60;;;;;;;;;;5035935;28;20041;-82
2023/01/19 08:39:52;;;;;;;9.68;2.50;;;;;;;;;;5040663;28;20107;-81
2023/01/19 08:42:18;;;;;;;10.05;2.90;;;;;;;;;;5034868;28;20099;-82
2023/01/19 08:44:44;;;;;;;10.70;2.65;;;;;;;;;;5035524;28;20049;-81
2023/01/19 08:47:10;;;;;;;9.02;2.92;;;;;;;;;;5049539;28;20043;-83
2023/01/19 08:49:36;;;;;;;8.85;2.90;;;;;;;;;;5067011;28;20045;-82
2023/01/19 08:52:02;;;;;;;9.15;2.45;;;;;;;;;;5073792;28;20044;-82
2023/01/19 08:54:28;;;;;;;13.35;2.80;;;;;;;;;;5039976;28;20416;-80
2023/01/19 08:56:55;;;;;;;9.23;2.80;;;;;;;;;;5064536;28;20052;-80
2023/01/19 08:59:21;;;;;;;11.18;3.03;;;;;;;;;;5044447;28;20037;-80
2023/01/19 09:01:53;;;;;;;10.90;2.97;;;;;;;;;;5041962;28;20041;-80
2023/01/19 09:04:19;;;;;;;10.18;2.60;;;;;;;;;;5046921;28;20053;-80
2023/01/19 09:06:45;;;;;;;7.43;2.35;;;;;;;;;;5057984;28;20139;-81
2023/01/19 09:09:11;;;;;;;12.57;2.70;;;;;;;;;;5042313;28;20115;-81
2023/01/19 09:11:37;;;;;;;12.02;2.50;;;;;;;;;;5050502;28;20041;-81
2023/01/19 09:14:04;;;;;;;7.03;2.67;;;;;;;;;;5053512;28;20051;-80
2023/01/19 09:16:30;;;;;;;8.18;2.20;;;;;;;;;;5044081;28;20142;-81
2023/01/19 09:18:57;;;;;;;9.60;2.53;;;;;;;;;;5040038;28;20036;-81
2023/01/19 09:21:23;;;;;;;9.32;2.92;;;;;;;;;;5048865;28;20128;-80
2023/01/19 09:23:49;;;;;;;5.00;2.33;;;;;;;;;;5052088;28;20076;-80
2023/01/19 09:26:15;;;;;;;7.50;2.28;;;;;;;;;;5046394;28;20089;-81
2023/01/19 09:28:41;;;;;;;5.63;2.42;;;;;;;;;;5048246;28;20068;-80
2023/01/19 09:31:07;;;;;;;7.55;2.58;;;;;;;;;;5038988;28;20427;-80
2023/01/19 09:33:34;;;;;;;8.63;2.67;;;;;;;;;;5071249;28;20048;-81
2023/01/19 09:36:01;;;;;;;6.95;2.75;;;;;;;;;;5067949;28;20045;-82
2023/01/19 09:38:30;;;;;;;7.55;2.20;;;;;;;;;;5033408;28;20072;-81
2023/01/19 09:40:57;;;;;;;11.50;2.45;;;;;;;;;;5043190;28;20057;-82
2023/01/19 09:43:44;;;;;;;10.77;2.50;;;;;;;;;;5043290;28;20052;-81
2023/01/19 09:46:20;;;;;;;10.27;2.83;;;;;;;;;;5044383;28;20045;-80
2023/01/19 09:48:57;;;;;;;6.20;2.10;;;;;;;;;;5053087;28;20037;-80
2023/01/19 09:51:28;;;;;;;8.18;2.80;;;;;;;;;;5034392;28;20046;-81
2023/01/19 09:53:57;;;;;;;9.38;2.42;;;;;;;;;;5038770;28;20041;-81
2023/01/19 09:56:23;;;;;;;9.20;2.45;;;;;;;;;;5034914;28;20481;-80
2023/01/19 09:58:50;;;;;;;9.90;2.22;;;;;;;;;;5041495;28;20048;-80
2023/01/19 10:01:42;;;;;;;13.23;2.72;;;;;;;;;;5048058;28;20052;-80
2023/01/19 10:04:28;;;;;;;4.95;2.33;;;;;;;;;;5037153;28;20057;-81
2023/01/19 10:07:02;;;;;;;7.85;2.65;;;;;;;;;;5038511;28;20037;-81
2023/01/19 10:09:28;;;;;;;7.93;2.00;;;;;;;;;;5031705;28;20056;-80
2023/01/19 10:12:01;;;;;;;12.50;3.15;;;;;;;;;;5041875;28;20045;-81
2023/01/19 10:14:41;;;;;;;9.18;2.92;;;;;;;;;;5041449;28;20079;-80
2023/01/19 10:17:27;;;;;;;6.32;2.15;;;;;;;;;;5038649;28;20053;-80
2023/01/19 10:19:55;;;;;;;6.97;2.40;;;;;;;;;;5032530;28;20049;-81
2023/01/19 10:22:26;;;;;;;11.00;2.10;;;;;;;;;;5033839;28;20126;-81
2023/01/19 10:24:56;;;;;;;4.68;2.10;;;;;;;;;;5049705;28;20041;-81
2023/01/19 10:27:27;;;;;;;6.03;2.15;;;;;;;;;;5027196;28;20048;-80
2023/01/19 10:29:54;;;;;;;7.10;1.98;;;;;;;;;;5035555;28;20052;-80
2023/01/19 10:32:22;;;;;;;7.78;2.30;;;;;;;;;;5045913;28;20122;-80
2023/01/19 10:34:49;;;;;;;8.00;2.17;;;;;;;;;;5044925;28;20053;-81
2023/01/19 10:37:17;;;;;;;4.80;2.00;;;;;;;;;;5042194;28;20049;-81
2023/01/19 10:39:45;;;;;;;6.97;2.13;;;;;;;;;;5043366;28;20515;-80
2023/01/19 10:42:14;;;;;;;7.07;2.17;;;;;;;;;;5042701;28;20053;-80
2023/01/19 10:44:41;;;;;;;6.18;2.05;;;;;;;;;;5069631;28;20041;-80
2023/01/19 10:47:13;;;;;;;8.05;2.30;;;;;;;;;;5045115;28;20040;-80
2023/01/19 10:49:43;;;;;;;7.28;2.40;;;;;;;;;;5046361;28;20072;-80
2023/01/19 10:52:24;;;;;;;6.57;2.05;;;;;;;;;;5038448;28;20104;-80
2023/01/19 10:54:53;;;;;;;7.55;2.75;;;;;;;;;;5035164;28;20049;-80
2023/01/19 10:57:29;;;;;;;8.50;2.53;;;;;;;;;;5045616;28;20118;-80
2023/01/19 10:59:55;;;;;;;6.20;2.20;;;;;;;;;;5026324;28;20400;-81
2023/01/19 11:02:21;;;;;;;3.90;2.10;;;;;;;;;;5036703;28;20045;-80
2023/01/19 11:04:49;;;;;;;7.45;1.85;;;;;;;;;;5046955;28;20116;-81
2023/01/19 11:07:15;;;;;;;9.60;2.13;;;;;;;;;;5047069;28;20044;-80
2023/01/19 11:09:41;;;;;;;10.00;2.20;;;;;;;;;;5047721;28;20107;-80
2023/01/19 11:12:14;;;;;;;7.28;2.20;;;;;;;;;;5043797;28;20118;-80
2023/01/19 11:14:41;;;;;;;6.38;2.05;;;;;;;;;;5045776;28;20041;-80
2023/01/19 11:17:14;;;;;;;6.40;2.10;;;;;;;;;;5034224;28;20096;-80
2023/01/19 11:19:40;;;;;;;7.03;2.38;;;;;;;;;;5046052;28;20037;-81
2023/01/19 11:22:25;;;;;;;5.35;1.90;;;;;;;;;;5046703;28;20055;-80
2023/01/19 11:24:52;;;;;;;5.57;1.80;;;;;;;;;;5042314;28;20045;-80
2023/01/19 11:27:21;;;;;;;5.22;1.92;;;;;;;;;;5045408;28;20511;-80
2023/01/19 11:30:00;;;;;;;3.63;2.17;;;;;;;;;;5060673;28;20391;-80
2023/01/19 11:32:26;;;;;;;11.60;2.22;;;;;;;;;;5036067;28;21830;-80
2023/01/19 11:34:52;;;;;;;4.32;1.80;;;;;;;;;;5031592;28;20701;-79
2023/01/19 11:37:18;;;;;;;5.38;2.17;;;;;;;;;;5041926;28;20507;-80
2023/01/19 11:39:49;;;;;;;9.95;2.35;;;;;;;;;;5031707;28;20095;-79
2023/01/19 11:42:15;;;;;;;7.43;1.92;;;;;;;;;;5038592;28;20053;-79
2023/01/19 11:44:55;;;;;;;7.95;2.10;;;;;;;;;;5066493;28;20033;-79
2023/01/19 11:47:41;;;;;;;5.75;2.00;;;;;;;;;;5041888;28;20051;-79
2023/01/19 11:50:24;;;;;;;4.00;2.33;;;;;;;;;;5057179;28;20049;-79
2023/01/19 11:53:07;;;;;;;5.70;2.00;;;;;;;;;;5037787;28;20388;-81
2023/01/19 11:55:37;;;;;;;6.20;2.10;;;;;;;;;;5036456;28;20045;-80
2023/01/19 11:58:04;;;;;;;7.43;2.53;;;;;;;;;;5036074;28;20046;-81
2023/01/19 12:00:39;;;;;;;4.80;2.10;;;;;;;;;;5027698;28;20044;-80
2023/01/19 12:03:29;;;;;;;8.13;2.15;;;;;;;;;;5043682;28;20087;-79
2023/01/19 12:05:57;;;;;;;6.63;2.15;;;;;;;;;;5046571;28;20048;-80
2023/01/19 12:08:28;;;;;;;5.10;2.13;;;;;;;;;;5027522;28;20485;-79
2023/01/19 12:10:55;;;;;;;9.15;2.13;;;;;;;;;;5037492;28;20048;-79
2023/01/19 12:13:22;;;;;;;5.05;2.20;;;;;;;;;;5026072;28;20036;-78
2023/01/19 12:15:51;;;;;;;4.95;1.90;;;;;;;;;;5031107;28;20052;-79
2023/01/19 12:18:21;;;;;;;6.88;1.83;;;;;;;;;;5028938;28;20045;-80
2023/01/19 12:20:50;;;;;;;4.25;1.80;;;;;;;;;;5038745;28;20067;-80
2023/01/19 12:23:34;;;;;;;6.05;1.90;;;;;;;;;;5041419;28;20555;-78
2023/01/19 12:26:08;;;;;;;7.07;2.22;;;;;;;;;;5031686;28;20037;-78
2023/01/19 12:28:37;;;;;;;7.70;2.03;;;;;;;;;;5032819;28;20107;-78
2023/01/19 12:31:03;;;;;;;9.65;2.08;;;;;;;;;;5034817;28;20069;-79
2023/01/19 12:33:33;;;;;;;5.68;2.08;;;;;;;;;;5041773;28;20129;-79
2023/01/19 12:36:02;;;;;;;6.95;2.30;;;;;;;;;;5027516;28;20124;-79
2023/01/19 12:38:46;;;;;;;5.97;2.20;;;;;;;;;;5035097;28;20057;-78
2023/01/19 12:41:17;;;;;;;5.78;1.92;;;;;;;;;;5041748;28;20040;-78
2023/01/19 12:43:43;;;;;;;3.97;2.05;;;;;;;;;;5035595;28;20041;-79
2023/01/19 12:46:19;;;;;;;3.72;1.88;;;;;;;;;;5034757;28;20076;-81
2023/01/19 12:48:46;;;;;;;8.23;3.47;;;;;;;;;;5031658;28;20160;-80
2023/01/19 12:51:25;;;;;;;4.47;2.08;;;;;;;;;;5035233;28;20072;-80
2023/01/19 12:53:52;;;;;;;10.63;2.22;;;;;;;;;;5031645;28;20488;-79
2023/01/19 12:56:19;;;;;;;4.72;1.90;;;;;;;;;;5037923;28;20610;-81
2023/01/19 12:58:48;;;;;;;5.88;2.10;;;;;;;;;;5042620;28;20079;-81
2023/01/19 13:01:17;;;;;;;4.07;1.95;;;;;;;;;;5030739;28;20118;-81
2023/01/19 13:03:58;;;;;;;4.40;1.60;;;;;;;;;;5036533;28;20049;-81
2023/01/19 13:06:47;;;;;;;3.83;1.70;;;;;;;;;;5037040;28;20040;-81
2023/01/19 13:09:43;;;;;;;4.57;1.70;;;;;;;;;;5032130;28;20505;-80
2023/01/19 13:12:23;;;;;;;3.55;1.73;;;;;;;;;;5026931;28;20095;-82
2023/01/19 13:14:49;;;;;;;2.40;1.80;;;;;;;;;;5046261;28;20110;-80
2023/01/19 13:17:26;;;;;;;4.72;2.10;;;;;;;;;;5037506;28;20128;-80
2023/01/19 13:19:55;;;;;;;5.65;1.98;;;;;;;;;;5057236;28;20041;-80
2023/01/19 13:22:40;;;;;;;8.60;2.28;;;;;;;;;;5039204;28;20489;-81
2023/01/19 13:25:09;;;;;;;5.68;2.38;;;;;;;;;;5041953;28;20145;-80
2023/01/19 13:27:36;;;;;;;5.15;2.30;;;;;;;;;;5039587;28;20045;-81
2023/01/19 13:30:10;;;;;;;5.18;2.35;;;;;;;;;;5068030;28;20052;-81
2023/01/19 13:32:40;;;;;;;5.00;2.30;;;;;;;;;;5037547;28;20496;-81
2023/01/19 13:35:13;;;;;;;5.65;1.92;;;;;;;;;;5033285;28;20383;-81
2023/01/19 13:37:40;;;;;;;7.17;2.60;;;;;;;;;;5043269;28;20114;-81
2023/01/19 13:40:06;;;;;;;7.93;2.28;;;;;;;;;;5041260;28;20047;-81
2023/01/19 13:42:35;;;;;;;6.20;2.75;;;;;;;;;;5069087;28;20083;-81
2023/01/19 13:45:20;;;;;;;5.53;2.05;;;;;;;;;;5075448;28;20045;-81
2023/01/19 13:47:47;;;;;;;5.45;2.35;;;;;;;;;;5038614;28;20095;-81
2023/01/19 13:50:24;;;;;;;8.23;2.70;;;;;;;;;;5032721;28;20132;-81
2023/01/19 13:52:52;;;;;;;7.45;2.20;;;;;;;;;;5039132;28;20083;-81
2023/01/19 13:55:19;;;;;;;6.28;2.08;;;;;;;;;;5043143;28;20055;-81
2023/01/19 13:57:52;;;;;;;8.07;2.65;;;;;;;;;;5024381;28;20373;-81
2023/01/19 14:00:20;;;;;;;7.97;2.60;;;;;;;;;;5039981;28;20418;-81
2023/01/19 14:03:04;;;;;;;5.05;2.15;;;;;;;;;;5039874;28;20041;-79
2023/01/19 14:05:31;;;;;;;5.53;2.45;;;;;;;;;;5036495;28;20052;-84
2023/01/19 14:08:10;;;;;;;6.22;2.38;;;;;;;;;;5048216;28;20041;-83
2023/01/19 14:10:37;;;;;;;6.70;2.50;;;;;;;;;;5045550;28;20041;-81
2023/01/19 14:13:13;;;;;;;6.45;2.20;;;;;;;;;;5041201;28;20488;-81
2023/01/19 14:15:39;;;;;;;5.63;2.55;;;;;;;;;;5037828;28;20060;-81
2023/01/19 14:18:11;;;;;;;4.90;2.20;;;;;;;;;;5046034;28;20041;-81
2023/01/19 14:20:37;;;;;;;3.90;1.80;;;;;;;;;;5047193;28;20147;-81
2023/01/19 14:23:03;;;;;;;4.97;2.03;;;;;;;;;;5047012;28;20040;-81
2023/01/19 14:25:33;;;;;;;3.10;1.80;;;;;;;;;;5043879;28;20053;-81
2023/01/19 14:28:18;;;;;;;4.50;2.20;;;;;;;;;;5049136;28;20107;-81
2023/01/19 14:30:57;;;;;;;6.47;1.90;;;;;;;;;;5035856;28;20070;-82
2023/01/19 14:33:33;;;;;;;8.20;2.40;;;;;;;;;;5076123;28;20041;-81
2023/01/19 14:36:29;;;;;;;5.45;2.13;;;;;;;;;;5041297;28;20045;-81
2023/01/19 14:38:57;;;;;;;6.40;2.25;;;;;;;;;;5025766;28;20098;-81
2023/01/19 14:41:26;;;;;;;3.47;1.95;;;;;;;;;;5069823;28;20389;-81
2023/01/19 14:43:54;;;;;;;4.30;2.33;;;;;;;;;;5049721;28;20388;-81
2023/01/19 14:46:21;;;;;;;7.93;2.22;;;;;;;;;;5040567;28;20046;-80
2023/01/19 14:48:48;;;;;;;5.60;2.33;;;;;;;;;;5040904;28;20037;-81
2023/01/19 14:51:22;;;;;;;5.40;2.22;;;;;;;;;;5046905;28;20037;-81
2023/01/19 14:53:52;;;;;;;7.75;2.40;;;;;;;;;;5058218;28;20056;-81
2023/01/19 14:56:26;;;;;;;4.03;2.30;;;;;;;;;;5042356;28;20040;-81
2023/01/19 14:58:52;;;;;;;;;;;;;;;;;;5043237;28;20041;-81
2023/01/19 15:01:18;;;;;;;3.47;1.60;;;;;;;;;;5041384;28;20284;-82
2023/01/19 15:03:44;;;;;;;3.60;2.30;;;;;;;;;;5070997;28;20397;-81